sensor_id;sensor_type;location;lat;lon;timestamp;pressure;altitude;pressure_sealevel;temperature;humidity
25560;BME280;13450;49.374;8.584;2023-12-29T00:01:50;100546.63;;;8.60;100.00
25560;BME280;13450;49.374;8.584;2023-12-29T00:04:15;100555.13;;;8.47;100.00
25560;BME280;13450;49.374;8.584;2023-12-29T00:06:41;100563.63;;;8.42;100.00
25560;BME280;13450;49.374;8.584;2023-12-29T00:09:07;100556.63;;;8.41;100.00
25560;BME280;13450;49.374;8.584;2023-12-29T00:11:32;100546.44;;;8.45;100.00
25560;BME280;13450;49.374;8.584;2023-12-29T00:13:58;100534.59;;;8.47;100.00
25560;BME280;13450;49.374;8.584;2023-12-29T00:16:23;100546.59;;;8.51;100.00
25560;BME280;13450;49.374;8.584;2023-12-29T00:18:48;100550.28;;;8.50;100.00
25560;BME280;13450;49.374;8.584;2023-12-29T00:21:14;100546.31;;;8.55;100.00
25560;BME280;13450;49.374;8.584;2023-12-29T00:23:44;100547.97;;;8.56;100.00
25560;BME280;13450;49.374;8.584;2023-12-29T00:26:09;100549.28;;;8.60;100.00
25560;BME280;13450;49.374;8.584;2023-12-29T00:28:35;100555.13;;;8.63;100.00
25560;BME280;13450;49.374;8.584;2023-12-29T00:31:02;100546.63;;;8.68;100.00
25560;BME280;13450;49.374;8.584;2023-12-29T00:33:27;100542.94;;;8.69;100.00
25560;BME280;13450;49.374;8.584;2023-12-29T00:35:52;100546.31;;;8.63;100.00
25560;BME280;13450;49.374;8.584;2023-12-29T00:38:18;100530.13;;;8.65;100.00
25560;BME280;13450;49.374;8.584;2023-12-29T00:40:43;100534.28;;;8.67;100.00
25560;BME280;13450;49.374;8.584;2023-12-29T00:43:08;100534.94;;;8.61;100.00
25560;BME280;13450;49.374;8.584;2023-12-29T00:45:34;100528.25;;;8.73;100.00
25560;BME280;13450;49.374;8.584;2023-12-29T00:48:01;100528.88;;;8.84;100.00
25560;BME280;13450;49.374;8.584;2023-12-29T00:50:27;100518.75;;;8.79;100.00
25560;BME280;13450;49.374;8.584;2023-12-29T00:52:52;100526.56;;;8.89;100.00
25560;BME280;13450;49.374;8.584;2023-12-29T00:55:19;100531.53;;;8.92;100.00
25560;BME280;13450;49.374;8.584;2023-12-29T00:57:49;100538.19;;;8.96;100.00
25560;BME280;13450;49.374;8.584;2023-12-29T01:00:15;100542.03;;;9.02;100.00
25560;BME280;13450;49.374;8.584;2023-12-29T01:02:40;100542.34;;;8.99;100.00
25560;BME280;13450;49.374;8.584;2023-12-29T01:05:08;100535.84;;;9.01;100.00
25560;BME280;13450;49.374;8.584;2023-12-29T01:07:33;100540.84;;;9.05;100.00
25560;BME280;13450;49.374;8.584;2023-12-29T01:09:58;100528.81;;;9.09;100.00
25560;BME280;13450;49.374;8.584;2023-12-29T01:12:25;100526.78;;;9.11;100.00
25560;BME280;13450;49.374;8.584;2023-12-29T01:14:50;100531.47;;;9.17;100.00
25560;BME280;13450;49.374;8.584;2023-12-29T01:17:15;100529.84;;;9.08;100.00
25560;BME280;13450;49.374;8.584;2023-12-29T01:19:41;100525.94;;;9.19;100.00
25560;BME280;13450;49.374;8.584;2023-12-29T01:22:08;100523.78;;;9.14;100.00
25560;BME280;13450;49.374;8.584;2023-12-29T01:24:33;100517.97;;;9.10;100.00
25560;BME280;13450;49.374;8.584;2023-12-29T01:26:59;100516.19;;;9.02;100.00
25560;BME280;13450;49.374;8.584;2023-12-29T01:29:24;100522.19;;;8.96;100.00
25560;BME280;13450;49.374;8.584;2023-12-29T01:31:49;100513.03;;;8.90;100.00
25560;BME280;13450;49.374;8.584;2023-12-29T01:34:14;100519.53;;;8.88;100.00
25560;BME280;13450;49.374;8.584;2023-12-29T01:36:40;100524.88;;;8.88;100.00
25560;BME280;13450;49.374;8.584;2023-12-29T01:39:05;100525.03;;;8.86;100.00
25560;BME280;13450;49.374;8.584;2023-12-29T01:41:30;100513.88;;;8.83;100.00
25560;BME280;13450;49.374;8.584;2023-12-29T01:46:21;100523.25;;;8.70;100.00
25560;BME280;13450;49.374;8.584;2023-12-29T01:48:46;100524.97;;;8.63;100.00
25560;BME280;13450;49.374;8.584;2023-12-29T01:51:14;100527.31;;;8.58;100.00
25560;BME280;13450;49.374;8.584;2023-12-29T01:53:42;100518.28;;;8.59;100.00
25560;BME280;13450;49.374;8.584;2023-12-29T01:56:09;100506.63;;;8.60;100.00
25560;BME280;13450;49.374;8.584;2023-12-29T01:58:34;100502.28;;;8.59;100.00
25560;BME280;13450;49.374;8.584;2023-12-29T02:01:03;100497.94;;;8.49;100.00
25560;BME280;13450;49.374;8.584;2023-12-29T02:03:32;100491.63;;;8.42;100.00
25560;BME280;13450;49.374;8.584;2023-12-29T02:05:58;100495.31;;;8.33;100.00
25560;BME280;13450;49.374;8.584;2023-12-29T02:08:26;100482.66;;;8.35;100.00
25560;BME280;13450;49.374;8.584;2023-12-29T02:10:52;100486.66;;;8.31;100.00
25560;BME280;13450;49.374;8.584;2023-12-29T02:13:17;100484.00;;;8.31;100.00
25560;BME280;13450;49.374;8.584;2023-12-29T02:15:43;100486.31;;;8.25;100.00
25560;BME280;13450;49.374;8.584;2023-12-29T02:18:12;100473.66;;;8.19;100.00
25560;BME280;13450;49.374;8.584;2023-12-29T02:20:41;100478.81;;;8.13;100.00
25560;BME280;13450;49.374;8.584;2023-12-29T02:23:06;100471.84;;;8.20;100.00
25560;BME280;13450;49.374;8.584;2023-12-29T02:25:32;100471.00;;;8.11;100.00
25560;BME280;13450;49.374;8.584;2023-12-29T02:30:46;100459.16;;;8.14;100.00
25560;BME280;13450;49.374;8.584;2023-12-29T02:33:19;100456.00;;;8.02;100.00
25560;BME280;13450;49.374;8.584;2023-12-29T02:35:51;100458.69;;;8.02;100.00
25560;BME280;13450;49.374;8.584;2023-12-29T02:38:20;100459.19;;;7.97;100.00
25560;BME280;13450;49.374;8.584;2023-12-29T02:40:47;100460.00;;;7.97;100.00
25560;BME280;13450;49.374;8.584;2023-12-29T02:43:13;100467.03;;;7.90;100.00
25560;BME280;13450;49.374;8.584;2023-12-29T02:45:38;100477.00;;;7.88;100.00
25560;BME280;13450;49.374;8.584;2023-12-29T02:48:04;100473.31;;;7.89;100.00
25560;BME280;13450;49.374;8.584;2023-12-29T02:50:29;100476.50;;;7.84;100.00
25560;BME280;13450;49.374;8.584;2023-12-29T02:52:54;100471.00;;;7.78;100.00
25560;BME280;13450;49.374;8.584;2023-12-29T02:55:22;100484.16;;;7.71;100.00
25560;BME280;13450;49.374;8.584;2023-12-29T02:57:48;100484.66;;;7.83;100.00
25560;BME280;13450;49.374;8.584;2023-12-29T03:00:13;100473.00;;;7.84;100.00
25560;BME280;13450;49.374;8.584;2023-12-29T03:02:39;100465.16;;;7.82;100.00
25560;BME280;13450;49.374;8.584;2023-12-29T03:05:04;100464.84;;;7.77;100.00
25560;BME280;13450;49.374;8.584;2023-12-29T03:07:30;100459.03;;;7.74;100.00
25560;BME280;13450;49.374;8.584;2023-12-29T03:09:57;100462.34;;;7.67;100.00
25560;BME280;13450;49.374;8.584;2023-12-29T03:12:23;100465.34;;;7.64;100.00
25560;BME280;13450;49.374;8.584;2023-12-29T03:14:48;100475.00;;;7.65;100.00
25560;BME280;13450;49.374;8.584;2023-12-29T03:17:14;100470.16;;;7.69;100.00
25560;BME280;13450;49.374;8.584;2023-12-29T03:19:39;100477.34;;;7.68;100.00
25560;BME280;13450;49.374;8.584;2023-12-29T03:22:04;100472.81;;;7.69;100.00
25560;BME280;13450;49.374;8.584;2023-12-29T03:24:30;100474.00;;;7.66;100.00
25560;BME280;13450;49.374;8.584;2023-12-29T03:26:56;100477.97;;;7.62;100.00
25560;BME280;13450;49.374;8.584;2023-12-29T03:29:21;100483.66;;;7.59;100.00
25560;BME280;13450;49.374;8.584;2023-12-29T03:31:46;100482.00;;;7.58;100.00
25560;BME280;13450;49.374;8.584;2023-12-29T03:34:15;100481.00;;;7.59;100.00
25560;BME280;13450;49.374;8.584;2023-12-29T03:36:42;100488.28;;;7.57;100.00
25560;BME280;13450;49.374;8.584;2023-12-29T03:39:08;100481.16;;;7.57;100.00
25560;BME280;13450;49.374;8.584;2023-12-29T03:41:38;100486.97;;;7.61;100.00
25560;BME280;13450;49.374;8.584;2023-12-29T03:44:05;100480.47;;;7.64;100.00
25560;BME280;13450;49.374;8.584;2023-12-29T03:46:33;100482.16;;;7.65;100.00
25560;BME280;13450;49.374;8.584;2023-12-29T03:48:58;100476.50;;;7.68;100.00
25560;BME280;13450;49.374;8.584;2023-12-29T03:51:24;100476.31;;;7.61;100.00
25560;BME280;13450;49.374;8.584;2023-12-29T03:53:50;100481.31;;;7.56;100.00
25560;BME280;13450;49.374;8.584;2023-12-29T03:56:16;100475.97;;;7.48;100.00
25560;BME280;13450;49.374;8.584;2023-12-29T03:58:42;100469.97;;;7.45;100.00
25560;BME280;13450;49.374;8.584;2023-12-29T04:01:12;100473.28;;;7.39;100.00
25560;BME280;13450;49.374;8.584;2023-12-29T04:03:38;100479.28;;;7.33;100.00
25560;BME280;13450;49.374;8.584;2023-12-29T04:06:04;100470.94;;;7.28;100.00
25560;BME280;13450;49.374;8.584;2023-12-29T04:08:30;100470.44;;;7.24;100.00
25560;BME280;13450;49.374;8.584;2023-12-29T04:10:55;100470.75;;;7.21;100.00
25560;BME280;13450;49.374;8.584;2023-12-29T04:13:20;100472.22;;;7.15;100.00
25560;BME280;13450;49.374;8.584;2023-12-29T04:15:46;100469.53;;;7.07;100.00
25560;BME280;13450;49.374;8.584;2023-12-29T04:18:11;100471.38;;;7.06;100.00
25560;BME280;13450;49.374;8.584;2023-12-29T04:20:36;100461.22;;;7.02;100.00
25560;BME280;13450;49.374;8.584;2023-12-29T04:23:02;100464.72;;;7.02;100.00
25560;BME280;13450;49.374;8.584;2023-12-29T04:25:27;100466.53;;;7.02;100.00
25560;BME280;13450;49.374;8.584;2023-12-29T04:27:53;100462.53;;;6.98;100.00
25560;BME280;13450;49.374;8.584;2023-12-29T04:30:18;100476.13;;;6.94;100.00
25560;BME280;13450;49.374;8.584;2023-12-29T04:32:43;100488.47;;;6.96;100.00
25560;BME280;13450;49.374;8.584;2023-12-29T04:35:09;100479.50;;;6.97;100.00
25560;BME280;13450;49.374;8.584;2023-12-29T04:37:37;100470.53;;;7.06;100.00
25560;BME280;13450;49.374;8.584;2023-12-29T04:40:03;100469.22;;;7.10;100.00
25560;BME280;13450;49.374;8.584;2023-12-29T04:42:30;100478.22;;;7.09;100.00
25560;BME280;13450;49.374;8.584;2023-12-29T04:44:55;100470.91;;;7.19;100.00
25560;BME280;13450;49.374;8.584;2023-12-29T04:47:20;100469.25;;;7.18;100.00
25560;BME280;13450;49.374;8.584;2023-12-29T04:49:45;100469.91;;;7.20;100.00
25560;BME280;13450;49.374;8.584;2023-12-29T04:52:11;100473.06;;;7.16;100.00
25560;BME280;13450;49.374;8.584;2023-12-29T04:54:37;100455.09;;;7.18;100.00
25560;BME280;13450;49.374;8.584;2023-12-29T04:57:02;100454.59;;;7.14;100.00
25560;BME280;13450;49.374;8.584;2023-12-29T04:59:27;100463.91;;;7.10;100.00
25560;BME280;13450;49.374;8.584;2023-12-29T05:01:53;100466.88;;;7.07;100.00
25560;BME280;13450;49.374;8.584;2023-12-29T05:04:18;100464.03;;;7.00;100.00
25560;BME280;13450;49.374;8.584;2023-12-29T05:06:43;100459.88;;;6.98;100.00
25560;BME280;13450;49.374;8.584;2023-12-29T05:09:09;100474.47;;;6.93;100.00
25560;BME280;13450;49.374;8.584;2023-12-29T05:11:34;100467.00;;;6.89;100.00
25560;BME280;13450;49.374;8.584;2023-12-29T05:14:02;100466.16;;;6.88;100.00
25560;BME280;13450;49.374;8.584;2023-12-29T05:16:29;100459.78;;;6.81;100.00
25560;BME280;13450;49.374;8.584;2023-12-29T05:18:57;100455.81;;;6.85;100.00
25560;BME280;13450;49.374;8.584;2023-12-29T05:21:25;100445.53;;;6.82;100.00
25560;BME280;13450;49.374;8.584;2023-12-29T05:23:52;100443.50;;;6.84;100.00
25560;BME280;13450;49.374;8.584;2023-12-29T05:26:17;100426.94;;;6.90;100.00
25560;BME280;13450;49.374;8.584;2023-12-29T05:28:43;100427.72;;;6.83;100.00
25560;BME280;13450;49.374;8.584;2023-12-29T05:31:08;100421.94;;;6.87;100.00
25560;BME280;13450;49.374;8.584;2023-12-29T05:33:34;100429.59;;;6.99;100.00
25560;BME280;13450;49.374;8.584;2023-12-29T05:36:05;100438.53;;;6.89;100.00
25560;BME280;13450;49.374;8.584;2023-12-29T05:38:32;100442.25;;;6.97;100.00
25560;BME280;13450;49.374;8.584;2023-12-29T05:40:58;100436.59;;;7.00;100.00
25560;BME280;13450;49.374;8.584;2023-12-29T05:43:23;100442.91;;;6.99;100.00
25560;BME280;13450;49.374;8.584;2023-12-29T05:45:48;100443.59;;;7.01;100.00
25560;BME280;13450;49.374;8.584;2023-12-29T05:48:13;100447.59;;;7.05;100.00
25560;BME280;13450;49.374;8.584;2023-12-29T05:50:39;100444.94;;;7.05;100.00
25560;BME280;13450;49.374;8.584;2023-12-29T05:53:04;100453.25;;;7.10;100.00
25560;BME280;13450;49.374;8.584;2023-12-29T05:55:31;100454.91;;;7.11;100.00
25560;BME280;13450;49.374;8.584;2023-12-29T05:57:58;100461.22;;;7.02;100.00
25560;BME280;13450;49.374;8.584;2023-12-29T06:00:24;100465.88;;;7.00;100.00
25560;BME280;13450;49.374;8.584;2023-12-29T06:02:49;100464.56;;;7.04;100.00
25560;BME280;13450;49.374;8.584;2023-12-29T06:05:15;100469.50;;;6.99;100.00
25560;BME280;13450;49.374;8.584;2023-12-29T06:07:43;100465.19;;;6.98;100.00
25560;BME280;13450;49.374;8.584;2023-12-29T06:10:08;100465.69;;;7.01;100.00
25560;BME280;13450;49.374;8.584;2023-12-29T06:12:36;100467.03;;;7.05;100.00
25560;BME280;13450;49.374;8.584;2023-12-29T06:15:02;100460.56;;;7.08;100.00
25560;BME280;13450;49.374;8.584;2023-12-29T06:17:27;100458.59;;;7.10;100.00
25560;BME280;13450;49.374;8.584;2023-12-29T06:19:52;100462.25;;;7.09;100.00
25560;BME280;13450;49.374;8.584;2023-12-29T06:22:18;100456.38;;;7.05;100.00
25560;BME280;13450;49.374;8.584;2023-12-29T06:24:43;100459.91;;;7.06;100.00
25560;BME280;13450;49.374;8.584;2023-12-29T06:27:09;100466.38;;;7.03;100.00
25560;BME280;13450;49.374;8.584;2023-12-29T06:29:35;100466.53;;;7.02;100.00
25560;BME280;13450;49.374;8.584;2023-12-29T06:32:00;100463.88;;;7.02;100.00
25560;BME280;13450;49.374;8.584;2023-12-29T06:34:26;100460.38;;;7.01;100.00
25560;BME280;13450;49.374;8.584;2023-12-29T06:36:51;100464.91;;;7.09;100.00
25560;BME280;13450;49.374;8.584;2023-12-29T06:39:16;100461.94;;;7.20;100.00
25560;BME280;13450;49.374;8.584;2023-12-29T06:41:42;100458.06;;;7.15;100.00
25560;BME280;13450;49.374;8.584;2023-12-29T06:44:07;100451.75;;;7.07;100.00
25560;BME280;13450;49.374;8.584;2023-12-29T06:46:33;100461.09;;;7.12;100.00
25560;BME280;13450;49.374;8.584;2023-12-29T06:48:58;100450.25;;;7.05;100.00
25560;BME280;13450;49.374;8.584;2023-12-29T06:51:26;100460.38;;;7.01;100.00
25560;BME280;13450;49.374;8.584;2023-12-29T06:53:51;100466.22;;;7.05;100.00
25560;BME280;13450;49.374;8.584;2023-12-29T06:56:20;100462.72;;;7.04;100.00
25560;BME280;13450;49.374;8.584;2023-12-29T06:58:48;100453.91;;;7.04;100.00
25560;BME280;13450;49.374;8.584;2023-12-29T07:01:16;100457.22;;;7.06;100.00
25560;BME280;13450;49.374;8.584;2023-12-29T07:03:42;100458.06;;;7.06;100.00
25560;BME280;13450;49.374;8.584;2023-12-29T07:06:07;100457.91;;;7.08;100.00
25560;BME280;13450;49.374;8.584;2023-12-29T07:08:33;100458.91;;;7.07;100.00
25560;BME280;13450;49.374;8.584;2023-12-29T07:11:00;100456.22;;;7.07;100.00
25560;BME280;13450;49.374;8.584;2023-12-29T07:13:25;100458.06;;;7.06;100.00
25560;BME280;13450;49.374;8.584;2023-12-29T07:15:50;100456.22;;;7.07;100.00
25560;BME280;13450;49.374;8.584;2023-12-29T07:18:16;100459.59;;;7.09;100.00
25560;BME280;13450;49.374;8.584;2023-12-29T07:20:42;100461.25;;;7.10;100.00
25560;BME280;13450;49.374;8.584;2023-12-29T07:23:08;100461.41;;;7.09;100.00
25560;BME280;13450;49.374;8.584;2023-12-29T07:25:33;100462.56;;;7.06;100.00
25560;BME280;13450;49.374;8.584;2023-12-29T07:27:58;100467.88;;;7.06;100.00
25560;BME280;13450;49.374;8.584;2023-12-29T07:30:24;100470.53;;;7.06;100.00
25560;BME280;13450;49.374;8.584;2023-12-29T07:32:49;100462.72;;;7.04;100.00
25560;BME280;13450;49.374;8.584;2023-12-29T07:35:14;100466.22;;;7.05;100.00
25560;BME280;13450;49.374;8.584;2023-12-29T07:37:43;100477.69;;;7.05;100.00
25560;BME280;13450;49.374;8.584;2023-12-29T07:40:11;100472.34;;;7.05;100.00
25560;BME280;13450;49.374;8.584;2023-12-29T07:42:38;100475.19;;;7.04;100.00
25560;BME280;13450;49.374;8.584;2023-12-29T07:45:04;100469.03;;;7.03;100.00
25560;BME280;13450;49.374;8.584;2023-12-29T07:47:30;100470.94;;;7.28;100.00
25560;BME280;13450;49.374;8.584;2023-12-29T07:49:56;100472.09;;;7.25;100.00
25560;BME280;13450;49.374;8.584;2023-12-29T07:52:21;100464.63;;;7.37;100.00
25560;BME280;13450;49.374;8.584;2023-12-29T07:54:49;100463.63;;;7.30;100.00
25560;BME280;13450;49.374;8.584;2023-12-29T07:57:14;100464.63;;;7.37;100.00
25560;BME280;13450;49.374;8.584;2023-12-29T07:59:39;100461.47;;;7.50;100.00
25560;BME280;13450;49.374;8.584;2023-12-29T08:02:05;100462.34;;;7.59;100.00
25560;BME280;13450;49.374;8.584;2023-12-29T08:04:30;100459.69;;;7.67;100.00
25560;BME280;13450;49.374;8.584;2023-12-29T08:06:58;100464.66;;;7.70;100.00
25560;BME280;13450;49.374;8.584;2023-12-29T08:09:24;100467.66;;;7.76;100.00
25560;BME280;13450;49.374;8.584;2023-12-29T08:11:50;100472.69;;;7.95;100.00
25560;BME280;13450;49.374;8.584;2023-12-29T08:14:15;100472.16;;;8.08;100.00
25560;BME280;13450;49.374;8.584;2023-12-29T08:16:41;100470.66;;;8.14;100.00
25560;BME280;13450;49.374;8.584;2023-12-29T08:19:06;100473.00;;;8.17;100.00
25560;BME280;13450;49.374;8.584;2023-12-29T08:21:32;100477.81;;;8.22;100.00
25560;BME280;13450;49.374;8.584;2023-12-29T08:23:58;100479.00;;;8.19;100.00
25560;BME280;13450;49.374;8.584;2023-12-29T08:26:28;100480.00;;;8.27;100.00
25560;BME280;13450;49.374;8.584;2023-12-29T08:28:58;100479.47;;;8.31;100.00
25560;BME280;13450;49.374;8.584;2023-12-29T08:31:23;100481.63;;;8.36;100.00
25560;BME280;13450;49.374;8.584;2023-12-29T08:33:49;100486.81;;;8.21;100.00
25560;BME280;13450;49.374;8.584;2023-12-29T08:36:18;100498.34;;;8.21;100.00
25560;BME280;13450;49.374;8.584;2023-12-29T08:38:43;100492.31;;;8.28;100.00
25560;BME280;13450;49.374;8.584;2023-12-29T08:41:09;100486.97;;;8.36;100.00
25560;BME280;13450;49.374;8.584;2023-12-29T08:43:34;100483.28;;;8.45;100.00
25560;BME280;13450;49.374;8.584;2023-12-29T08:46:01;100487.63;;;8.63;100.00
25560;BME280;13450;49.374;8.584;2023-12-29T08:48:26;100481.25;;;8.64;100.00
25560;BME280;13450;49.374;8.584;2023-12-29T08:50:51;100491.06;;;8.72;100.00
25560;BME280;13450;49.374;8.584;2023-12-29T08:53:17;100489.50;;;8.94;100.00
25560;BME280;13450;49.374;8.584;2023-12-29T08:55:42;100482.13;;;9.05;100.00
25560;BME280;13450;49.374;8.584;2023-12-29T08:58:07;100492.78;;;9.05;100.00
25560;BME280;13450;49.374;8.584;2023-12-29T09:00:33;100496.09;;;9.07;100.00
25560;BME280;13450;49.374;8.584;2023-12-29T09:02:59;100496.75;;;9.17;100.00
25560;BME280;13450;49.374;8.584;2023-12-29T09:05:24;100508.34;;;9.33;100.00
25560;BME280;13450;49.374;8.584;2023-12-29T09:07:49;100491.63;;;9.39;100.00
25560;BME280;13450;49.374;8.584;2023-12-29T09:10:17;100498.28;;;9.43;100.00
25560;BME280;13450;49.374;8.584;2023-12-29T09:12:43;100489.91;;;9.46;100.00
25560;BME280;13450;49.374;8.584;2023-12-29T09:15:09;100490.88;;;9.53;100.00
25560;BME280;13450;49.374;8.584;2023-12-29T09:17:34;100494.47;;;9.61;100.00
25560;BME280;13450;49.374;8.584;2023-12-29T09:20:00;100491.16;;;9.59;100.00
25560;BME280;13450;49.374;8.584;2023-12-29T09:22:25;100490.53;;;9.57;100.00
25560;BME280;13450;49.374;8.584;2023-12-29T09:24:53;100485.44;;;9.70;100.00
25560;BME280;13450;49.374;8.584;2023-12-29T09:27:19;100482.44;;;9.88;100.00
25560;BME280;13450;49.374;8.584;2023-12-29T09:29:44;100485.88;;;9.97;100.00
25560;BME280;13450;49.374;8.584;2023-12-29T09:32:09;100489.06;;;10.16;100.00
25560;BME280;13450;49.374;8.584;2023-12-29T09:34:37;100479.28;;;10.23;100.00
25560;BME280;13450;49.374;8.584;2023-12-29T09:37:07;100480.88;;;10.32;100.00
25560;BME280;13450;49.374;8.584;2023-12-29T09:39:35;100478.38;;;10.16;100.00
25560;BME280;13450;49.374;8.584;2023-12-29T09:42:02;100474.09;;;10.06;100.00
25560;BME280;13450;49.374;8.584;2023-12-29T09:44:31;100470.53;;;10.14;100.00
25560;BME280;13450;49.374;8.584;2023-12-29T09:47:03;100467.69;;;10.31;100.00
25560;BME280;13450;49.374;8.584;2023-12-29T09:49:47;100470.94;;;10.41;100.00
25560;BME280;13450;49.374;8.584;2023-12-29T09:52:13;100465.63;;;10.56;100.00
25560;BME280;13450;49.374;8.584;2023-12-29T09:54:39;100454.06;;;10.71;100.00
25560;BME280;13450;49.374;8.584;2023-12-29T09:57:05;100457.09;;;10.83;100.00
25560;BME280;13450;49.374;8.584;2023-12-29T09:59:34;100451.91;;;10.96;100.00
25560;BME280;13450;49.374;8.584;2023-12-29T10:02:03;100460.03;;;11.03;100.00
25560;BME280;13450;49.374;8.584;2023-12-29T10:04:29;100447.66;;;11.02;100.00
25560;BME280;13450;49.374;8.584;2023-12-29T10:06:59;100460.56;;;11.14;100.00
25560;BME280;13450;49.374;8.584;2023-12-29T10:09:30;100452.16;;;11.17;100.00
25560;BME280;13450;49.374;8.584;2023-12-29T10:11:56;100451.78;;;11.20;100.00
25560;BME280;13450;49.374;8.584;2023-12-29T10:14:24;100450.50;;;11.16;100.00
25560;BME280;13450;49.374;8.584;2023-12-29T10:16:59;100446.53;;;11.11;100.00
25560;BME280;13450;49.374;8.584;2023-12-29T10:24:30;100442.88;;;10.82;100.00
25560;BME280;13450;49.374;8.584;2023-12-29T10:26:56;100438.09;;;10.78;100.00
25560;BME280;13450;49.374;8.584;2023-12-29T10:29:21;100441.88;;;10.83;100.00
25560;BME280;13450;49.374;8.584;2023-12-29T10:31:47;100440.19;;;10.82;100.00
25560;BME280;13450;49.374;8.584;2023-12-29T10:34:24;100439.75;;;10.94;100.00
25560;BME280;13450;49.374;8.584;2023-12-29T10:36:57;100438.34;;;10.98;100.00
25560;BME280;13450;49.374;8.584;2023-12-29T10:39:23;100439.91;;;10.92;100.00
25560;BME280;13450;49.374;8.584;2023-12-29T10:41:50;100426.50;;;11.07;100.00
25560;BME280;13450;49.374;8.584;2023-12-29T10:44:16;100435.72;;;11.20;100.00
25560;BME280;13450;49.374;8.584;2023-12-29T10:46:41;100422.59;;;11.47;100.00
25560;BME280;13450;49.374;8.584;2023-12-29T10:49:13;100425.47;;;11.67;100.00
25560;BME280;13450;49.374;8.584;2023-12-29T10:51:39;100426.06;;;11.91;100.00
25560;BME280;13450;49.374;8.584;2023-12-29T10:54:05;100415.91;;;12.43;100.00
25560;BME280;13450;49.374;8.584;2023-12-29T10:56:33;100425.00;;;12.85;100.00
25560;BME280;13450;49.374;8.584;2023-12-29T10:59:00;100427.50;;;12.51;100.00
25560;BME280;13450;49.374;8.584;2023-12-29T11:01:26;100429.06;;;12.74;100.00
25560;BME280;13450;49.374;8.584;2023-12-29T11:04:06;100420.78;;;12.68;100.00
25560;BME280;13450;49.374;8.584;2023-12-29T11:06:43;100424.00;;;12.50;100.00
25560;BME280;13450;49.374;8.584;2023-12-29T11:09:10;100414.94;;;12.58;100.00
25560;BME280;13450;49.374;8.584;2023-12-29T11:11:37;100411.31;;;12.73;100.00
25560;BME280;13450;49.374;8.584;2023-12-29T11:14:02;100405.13;;;12.79;100.00
25560;BME280;13450;49.374;8.584;2023-12-29T11:16:29;100398.03;;;13.13;100.00
25560;BME280;13450;49.374;8.584;2023-12-29T11:19:00;100406.13;;;13.40;100.00
25560;BME280;13450;49.374;8.584;2023-12-29T11:21:30;100404.09;;;13.96;100.00
25560;BME280;13450;49.374;8.584;2023-12-29T11:23:58;100392.19;;;15.36;100.00
25560;BME280;13450;49.374;8.584;2023-12-29T11:26:24;100398.78;;;16.17;100.00
25560;BME280;13450;49.374;8.584;2023-12-29T11:28:51;100397.59;;;16.50;100.00
25560;BME280;13450;49.374;8.584;2023-12-29T11:31:17;100399.38;;;15.93;100.00
25560;BME280;13450;49.374;8.584;2023-12-29T11:33:48;100398.56;;;15.67;100.00
25560;BME280;13450;49.374;8.584;2023-12-29T11:36:34;100397.06;;;15.46;100.00
25560;BME280;13450;49.374;8.584;2023-12-29T11:39:09;100400.13;;;15.56;100.00
25560;BME280;13450;49.374;8.584;2023-12-29T11:44:16;100407.44;;;15.75;100.00
25560;BME280;13450;49.374;8.584;2023-12-29T11:46:49;100411.91;;;17.19;93.44
25560;BME280;13450;49.374;8.584;2023-12-29T11:49:14;100406.88;;;18.01;80.09
25560;BME280;13450;49.374;8.584;2023-12-29T11:54:06;100398.69;;;19.99;67.59
25560;BME280;13450;49.374;8.584;2023-12-29T11:56:36;100406.56;;;19.84;66.77
25560;BME280;13450;49.374;8.584;2023-12-29T11:59:17;100395.28;;;19.41;69.01
25560;BME280;13450;49.374;8.584;2023-12-29T12:06:56;100388.91;;;20.21;62.44
25560;BME280;13450;49.374;8.584;2023-12-29T12:09:22;100382.03;;;18.28;64.08
25560;BME280;13450;49.374;8.584;2023-12-29T12:11:51;100389.28;;;19.73;65.34
25560;BME280;13450;49.374;8.584;2023-12-29T15:24:41;100374.00;;;10.54;100.00
25560;BME280;13450;49.374;8.584;2023-12-29T15:27:06;100377.13;;;10.43;100.00
25560;BME280;13450;49.374;8.584;2023-12-29T15:29:32;100371.78;;;10.43;100.00
25560;BME280;13450;49.374;8.584;2023-12-29T15:31:58;100376.47;;;10.41;100.00
25560;BME280;13450;49.374;8.584;2023-12-29T15:34:24;100370.84;;;10.36;100.00
25560;BME280;13450;49.374;8.584;2023-12-29T15:36:49;100369.53;;;10.31;100.00
25560;BME280;13450;49.374;8.584;2023-12-29T15:39:16;100361.69;;;10.30;100.00
25560;BME280;13450;49.374;8.584;2023-12-29T15:41:44;100363.94;;;10.26;100.00
25560;BME280;13450;49.374;8.584;2023-12-29T15:44:09;100358.94;;;10.23;100.00
25560;BME280;13450;49.374;8.584;2023-12-29T15:46:37;100348.63;;;10.20;100.00
25560;BME280;13450;49.374;8.584;2023-12-29T15:49:02;100354.69;;;10.14;100.00
25560;BME280;13450;49.374;8.584;2023-12-29T15:51:31;100351.66;;;10.17;100.00
25560;BME280;13450;49.374;8.584;2023-12-29T15:53:59;100349.16;;;10.15;100.00
25560;BME280;13450;49.374;8.584;2023-12-29T15:56:27;100350.56;;;10.11;100.00
25560;BME280;13450;49.374;8.584;2023-12-29T15:58:52;100353.69;;;10.15;100.00
25560;BME280;13450;49.374;8.584;2023-12-29T16:01:22;100337.53;;;10.08;100.00
25560;BME280;13450;49.374;8.584;2023-12-29T16:03:51;100343.38;;;10.12;100.00
25560;BME280;13450;49.374;8.584;2023-12-29T16:06:25;100343.72;;;10.08;100.00
25560;BME280;13450;49.374;8.584;2023-12-29T16:08:50;100341.72;;;10.11;100.00
25560;BME280;13450;49.374;8.584;2023-12-29T16:11:27;100341.06;;;10.08;100.00
25560;BME280;13450;49.374;8.584;2023-12-29T16:13:53;100335.06;;;10.06;100.00
25560;BME280;13450;49.374;8.584;2023-12-29T16:16:19;100337.28;;;10.03;100.00